createdAt,value
2022-08-17T00:00:07.000Z,0
2022-08-17T00:01:23.000Z,0
2022-08-17T00:02:39.000Z,0
2022-08-17T00:03:55.000Z,0
2022-08-17T00:05:11.000Z,0
2022-08-17T00:06:27.000Z,0
2022-08-17T00:07:43.000Z,0
2022-08-17T00:09:00.000Z,0
2022-08-17T00:10:16.000Z,0
2022-08-17T00:11:32.000Z,0
2022-08-17T00:12:48.000Z,0
2022-08-17T00:14:04.000Z,0
2022-08-17T00:15:21.000Z,0
2022-08-17T00:16:37.000Z,0
2022-08-17T00:17:53.000Z,0
2022-08-17T00:19:08.000Z,0
2022-08-17T00:20:24.000Z,0
2022-08-17T00:21:40.000Z,0
2022-08-17T00:22:57.000Z,0
2022-08-17T00:24:13.000Z,0
2022-08-17T00:25:29.000Z,0
2022-08-17T00:26:45.000Z,0
2022-08-17T00:28:01.000Z,0
2022-08-17T00:29:18.000Z,0
2022-08-17T00:30:34.000Z,0
2022-08-17T00:31:50.000Z,0
2022-08-17T00:33:06.000Z,0
2022-08-17T00:34:22.000Z,0
2022-08-17T00:35:38.000Z,0
2022-08-17T00:36:54.000Z,0
2022-08-17T00:38:10.000Z,0
2022-08-17T00:39:26.000Z,0
2022-08-17T00:40:42.000Z,0
2022-08-17T00:41:58.000Z,0
2022-08-17T00:43:15.000Z,0
2022-08-17T00:44:31.000Z,0
2022-08-17T00:45:47.000Z,0
2022-08-17T00:47:03.000Z,0
2022-08-17T00:48:19.000Z,0
2022-08-17T00:49:36.000Z,0
2022-08-17T00:50:52.000Z,0
2022-08-17T00:52:07.000Z,0
2022-08-17T00:53:23.000Z,0
2022-08-17T00:54:39.000Z,0
2022-08-17T00:55:56.000Z,0
2022-08-17T00:57:12.000Z,0
2022-08-17T00:58:28.000Z,0
2022-08-17T00:59:44.000Z,0
2022-08-17T01:01:00.000Z,0
2022-08-17T01:02:17.000Z,0
2022-08-17T01:03:33.000Z,0
2022-08-17T01:04:49.000Z,0
2022-08-17T01:06:05.000Z,0
2022-08-17T01:07:21.000Z,0
2022-08-17T01:08:36.000Z,0
2022-08-17T01:09:53.000Z,0
2022-08-17T01:11:09.000Z,0
2022-08-17T01:12:25.000Z,0
2022-08-17T01:13:41.000Z,0
2022-08-17T01:14:57.000Z,0
2022-08-17T01:16:14.000Z,0
2022-08-17T01:17:30.000Z,0
2022-08-17T01:18:46.000Z,0
2022-08-17T01:20:02.000Z,0
2022-08-17T01:21:18.000Z,0
2022-08-17T01:22:35.000Z,0
2022-08-17T01:23:51.000Z,0
2022-08-17T01:25:06.000Z,0
2022-08-17T01:26:22.000Z,0
2022-08-17T01:27:38.000Z,0
2022-08-17T01:28:55.000Z,0
2022-08-17T01:30:11.000Z,0
2022-08-17T01:31:27.000Z,0
2022-08-17T01:32:43.000Z,0
2022-08-17T01:33:59.000Z,0
2022-08-17T01:35:15.000Z,0
2022-08-17T01:36:32.000Z,0
2022-08-17T01:37:48.000Z,0
2022-08-17T01:39:04.000Z,0
2022-08-17T01:40:20.000Z,0
2022-08-17T01:41:35.000Z,0
2022-08-17T01:42:52.000Z,0
2022-08-17T01:44:08.000Z,0
2022-08-17T01:45:24.000Z,0
2022-08-17T01:46:40.000Z,0
2022-08-17T01:47:56.000Z,0
2022-08-17T01:49:13.000Z,0
2022-08-17T01:50:29.000Z,0
2022-08-17T01:51:45.000Z,0
2022-08-17T01:53:01.000Z,0
2022-08-17T01:54:17.000Z,0
2022-08-17T01:55:33.000Z,0
2022-08-17T01:56:50.000Z,0
2022-08-17T01:58:05.000Z,0
2022-08-17T01:59:21.000Z,0
2022-08-17T02:00:37.000Z,0
2022-08-17T02:01:53.000Z,0
2022-08-17T02:03:10.000Z,0
2022-08-17T02:04:26.000Z,0
2022-08-17T02:05:42.000Z,0
2022-08-17T02:06:58.000Z,0
2022-08-17T02:08:14.000Z,0
2022-08-17T02:09:31.000Z,0
2022-08-17T02:10:47.000Z,0
2022-08-17T02:12:03.000Z,0
2022-08-17T02:13:19.000Z,0
2022-08-17T02:14:34.000Z,0
2022-08-17T02:15:51.000Z,0
2022-08-17T02:17:07.444Z,0
2022-08-17T02:18:23.000Z,0
2022-08-17T02:19:39.000Z,0
2022-08-17T02:20:55.000Z,0
2022-08-17T02:22:11.000Z,0
2022-08-17T02:23:28.000Z,0
2022-08-17T02:24:44.000Z,0
2022-08-17T02:26:00.000Z,0
2022-08-17T02:27:16.000Z,0
2022-08-17T02:28:32.000Z,0
2022-08-17T02:29:49.000Z,0
2022-08-17T02:31:04.000Z,0
2022-08-17T02:32:20.000Z,0
2022-08-17T02:33:36.000Z,0
2022-08-17T02:34:52.000Z,0
2022-08-17T02:36:09.000Z,0
2022-08-17T02:37:25.000Z,0
2022-08-17T02:38:41.000Z,0
2022-08-17T02:39:57.000Z,0
2022-08-17T02:41:13.000Z,0
2022-08-17T02:42:30.000Z,0
2022-08-17T02:43:46.000Z,0
2022-08-17T02:45:02.000Z,0
2022-08-17T02:46:18.000Z,0
2022-08-17T02:47:33.000Z,0
2022-08-17T02:48:49.000Z,0
2022-08-17T02:50:06.000Z,0
2022-08-17T02:51:22.000Z,0
2022-08-17T02:52:38.000Z,0
2022-08-17T02:53:54.000Z,0
2022-08-17T02:55:10.000Z,0
2022-08-17T02:56:27.000Z,0
2022-08-17T02:57:43.000Z,0
2022-08-17T02:58:59.000Z,0
2022-08-17T03:00:15.000Z,0
2022-08-17T03:01:31.000Z,0
2022-08-17T03:02:48.000Z,0
2022-08-17T03:04:03.000Z,0
2022-08-17T03:05:19.000Z,0
2022-08-17T03:06:35.000Z,0
2022-08-17T03:07:51.000Z,0
2022-08-17T03:09:07.000Z,0
2022-08-17T03:10:24.000Z,0
2022-08-17T03:11:40.000Z,0
2022-08-17T03:12:56.000Z,0
2022-08-17T03:14:12.000Z,0
2022-08-17T03:15:28.000Z,0
2022-08-17T03:16:45.000Z,0
2022-08-17T03:18:01.000Z,0
2022-08-17T03:19:17.000Z,0
2022-08-17T03:20:32.000Z,0
2022-08-17T03:21:48.000Z,0
2022-08-17T03:23:05.000Z,0
2022-08-17T03:24:21.000Z,0
2022-08-17T03:25:37.000Z,0
2022-08-17T03:26:53.000Z,0
2022-08-17T03:28:09.000Z,0
2022-08-17T03:29:26.000Z,0
2022-08-17T03:30:42.000Z,0
2022-08-17T03:31:58.000Z,0
2022-08-17T03:33:14.000Z,0
2022-08-17T03:34:30.000Z,0
2022-08-17T03:35:46.000Z,0
2022-08-17T03:37:02.000Z,0
2022-08-17T03:38:18.000Z,0
2022-08-17T03:39:34.000Z,0
2022-08-17T03:40:50.000Z,0
2022-08-17T03:42:06.000Z,0
2022-08-17T03:43:23.000Z,0
2022-08-17T03:44:38.000Z,0
2022-08-17T03:45:54.000Z,0
2022-08-17T03:47:10.000Z,0
2022-08-17T03:48:26.000Z,0
2022-08-17T03:49:43.000Z,0
2022-08-17T03:50:59.000Z,0
2022-08-17T03:52:15.000Z,0
2022-08-17T03:53:31.000Z,0
2022-08-17T03:54:47.000Z,0
2022-08-17T03:56:04.000Z,0
2022-08-17T03:57:20.000Z,0
2022-08-17T03:58:36.000Z,0
2022-08-17T03:59:52.000Z,0
2022-08-17T04:01:08.000Z,0
2022-08-17T04:02:23.000Z,5
2022-08-17T04:03:40.000Z,5
2022-08-17T04:04:56.000Z,5
2022-08-17T04:06:12.000Z,5
2022-08-17T04:07:28.000Z,5
2022-08-17T04:08:44.000Z,5
2022-08-17T04:10:01.000Z,11
2022-08-17T04:11:17.000Z,11
2022-08-17T04:12:33.000Z,11
2022-08-17T04:13:49.000Z,11
2022-08-17T04:15:05.000Z,16
2022-08-17T04:16:22.000Z,16
2022-08-17T04:17:38.000Z,22
2022-08-17T04:18:53.000Z,22
2022-08-17T04:20:09.000Z,22
2022-08-17T04:21:25.000Z,22
2022-08-17T04:22:42.000Z,22
2022-08-17T04:23:58.000Z,28
2022-08-17T04:25:14.000Z,28
2022-08-17T04:26:30.000Z,28
2022-08-17T04:27:46.000Z,28
2022-08-17T04:29:02.000Z,28
2022-08-17T04:30:19.000Z,28
2022-08-17T04:31:35.000Z,33
2022-08-17T04:32:51.000Z,33
2022-08-17T04:34:07.000Z,33
2022-08-17T04:35:22.000Z,33
2022-08-17T04:36:39.000Z,39
2022-08-17T04:37:55.000Z,39
2022-08-17T04:39:11.000Z,45
2022-08-17T04:40:27.000Z,45
2022-08-17T04:41:43.000Z,45
2022-08-17T04:43:00.000Z,50
2022-08-17T04:44:16.000Z,56
2022-08-17T04:45:32.000Z,56
2022-08-17T04:46:48.000Z,61
2022-08-17T04:48:04.000Z,61
2022-08-17T04:49:20.000Z,67
2022-08-17T04:50:37.000Z,67
2022-08-17T04:51:52.000Z,73
2022-08-17T04:53:08.000Z,73
2022-08-17T04:54:24.000Z,73
2022-08-17T04:55:40.000Z,78
2022-08-17T04:56:57.000Z,84
2022-08-17T04:58:13.000Z,90
2022-08-17T04:59:29.000Z,95
2022-08-17T05:00:45.000Z,95
2022-08-17T05:02:01.000Z,101
2022-08-17T05:03:18.000Z,106
2022-08-17T05:04:34.000Z,112
2022-08-17T05:05:50.000Z,118
2022-08-17T05:07:06.000Z,118
2022-08-17T05:08:21.000Z,123
2022-08-17T05:09:38.000Z,123
2022-08-17T05:10:54.000Z,129
2022-08-17T05:12:10.000Z,129
2022-08-17T05:13:26.000Z,135
2022-08-17T05:14:42.000Z,135
2022-08-17T05:15:58.000Z,140
2022-08-17T05:17:15.000Z,140
2022-08-17T05:18:31.000Z,140
2022-08-17T05:19:47.000Z,146
2022-08-17T05:21:03.000Z,151
2022-08-17T05:22:19.000Z,157
2022-08-17T05:23:36.000Z,157
2022-08-17T05:24:51.000Z,168
2022-08-17T05:26:07.000Z,174
2022-08-17T05:27:23.000Z,180
2022-08-17T05:28:39.000Z,185
2022-08-17T05:29:56.000Z,196
2022-08-17T05:31:12.496Z,202
2022-08-17T05:32:28.000Z,208
2022-08-17T05:33:44.000Z,219
2022-08-17T05:35:00.000Z,225
2022-08-17T05:36:17.000Z,236
2022-08-17T05:37:33.000Z,253
2022-08-17T05:38:49.000Z,258
2022-08-17T05:40:05.000Z,258
2022-08-17T05:41:20.000Z,264
2022-08-17T05:42:36.000Z,270
2022-08-17T05:43:53.000Z,275
2022-08-17T05:45:09.000Z,292
2022-08-17T05:46:25.000Z,309
2022-08-17T05:47:41.000Z,348
2022-08-17T05:48:57.000Z,365
2022-08-17T05:50:14.000Z,354
2022-08-17T05:51:30.000Z,365
2022-08-17T05:52:46.000Z,405
2022-08-17T05:54:02.000Z,438
2022-08-17T05:55:18.000Z,450
2022-08-17T05:56:35.000Z,438
2022-08-17T05:57:50.000Z,444
2022-08-17T05:59:06.000Z,433
2022-08-17T06:00:22.000Z,416
2022-08-17T06:01:38.000Z,382
2022-08-17T06:02:55.000Z,360
2022-08-17T06:04:11.000Z,348
2022-08-17T06:05:27.000Z,343
2022-08-17T06:06:43.000Z,343
2022-08-17T06:07:59.000Z,365
2022-08-17T06:09:15.000Z,376
2022-08-17T06:10:32.000Z,382
2022-08-17T06:11:48.000Z,382
2022-08-17T06:13:04.000Z,382
2022-08-17T06:14:19.000Z,382
2022-08-17T06:15:35.000Z,388
2022-08-17T06:16:52.000Z,388
2022-08-17T06:18:08.000Z,388
2022-08-17T06:19:24.000Z,388
2022-08-17T06:20:40.000Z,393
2022-08-17T06:21:56.000Z,405
2022-08-17T06:23:13.000Z,416
2022-08-17T06:24:29.000Z,433
2022-08-17T06:25:45.000Z,455
2022-08-17T06:27:01.000Z,466
2022-08-17T06:28:17.000Z,466
2022-08-17T06:29:34.000Z,495
2022-08-17T06:30:49.000Z,506
2022-08-17T06:32:05.000Z,495
2022-08-17T06:33:21.000Z,511
2022-08-17T06:34:37.000Z,506
2022-08-17T06:35:53.000Z,489
2022-08-17T06:37:10.000Z,466
2022-08-17T06:38:26.000Z,461
2022-08-17T06:39:42.000Z,450
2022-08-17T06:40:58.000Z,444
2022-08-17T06:42:14.000Z,450
2022-08-17T06:43:31.000Z,472
2022-08-17T06:44:47.000Z,472
2022-08-17T06:46:03.000Z,478
2022-08-17T06:47:18.000Z,489
2022-08-17T06:48:34.000Z,472
2022-08-17T06:49:51.000Z,489
2022-08-17T06:51:07.000Z,472
2022-08-17T06:52:23.000Z,466
2022-08-17T06:53:39.000Z,461
2022-08-17T06:54:55.000Z,461
2022-08-17T06:56:11.000Z,455
2022-08-17T06:57:28.000Z,450
2022-08-17T06:58:44.000Z,466
2022-08-17T07:00:00.000Z,540
2022-08-17T07:01:16.000Z,770
2022-08-17T07:02:32.000Z,731
2022-08-17T07:03:48.000Z,556
2022-08-17T07:05:04.000Z,545
2022-08-17T07:06:20.000Z,528
2022-08-17T07:07:36.000Z,523
2022-08-17T07:08:52.000Z,517
2022-08-17T07:10:09.000Z,506
2022-08-17T07:11:25.000Z,500
2022-08-17T07:12:41.459Z,495
2022-08-17T07:13:57.000Z,495
2022-08-17T07:15:13.000Z,495
2022-08-17T07:16:30.000Z,489
2022-08-17T07:17:46.000Z,495
2022-08-17T07:19:02.000Z,511
2022-08-17T07:20:17.000Z,523
2022-08-17T07:21:33.803Z,534
2022-08-17T07:22:49.000Z,540
2022-08-17T07:24:06.000Z,540
2022-08-17T07:25:22.000Z,545
2022-08-17T07:26:38.000Z,551
2022-08-17T07:27:54.000Z,556
2022-08-17T07:29:10.000Z,573
2022-08-17T07:30:27.000Z,579
2022-08-17T07:31:43.000Z,585
2022-08-17T07:32:59.000Z,590
2022-08-17T07:34:15.000Z,590
2022-08-17T07:35:31.000Z,596
2022-08-17T07:36:47.000Z,607
2022-08-17T07:38:03.000Z,618
2022-08-17T07:39:19.000Z,618
2022-08-17T07:40:35.000Z,618
2022-08-17T07:41:51.000Z,601
2022-08-17T07:43:08.000Z,590
2022-08-17T07:44:24.000Z,590
2022-08-17T07:45:40.000Z,601
2022-08-17T07:46:56.000Z,607
2022-08-17T07:48:12.000Z,618
2022-08-17T07:49:28.000Z,618
2022-08-17T07:50:45.000Z,613
2022-08-17T07:52:01.000Z,607
2022-08-17T07:53:16.000Z,607
2022-08-17T07:54:32.000Z,607
2022-08-17T07:55:48.000Z,607
2022-08-17T07:57:05.000Z,613
2022-08-17T07:58:21.000Z,613
2022-08-17T07:59:36.000Z,618
2022-08-17T08:00:52.000Z,618
2022-08-17T08:02:08.000Z,613
2022-08-17T08:03:25.000Z,613
2022-08-17T08:04:41.000Z,613
2022-08-17T08:05:57.000Z,613
2022-08-17T08:07:13.000Z,613
2022-08-17T08:08:29.000Z,613
2022-08-17T08:09:46.000Z,607
2022-08-17T08:11:02.000Z,607
2022-08-17T08:12:18.000Z,607
2022-08-17T08:13:34.000Z,618
2022-08-17T08:14:50.000Z,624
2022-08-17T08:16:06.000Z,624
2022-08-17T08:17:22.000Z,624
2022-08-17T08:18:38.000Z,624
2022-08-17T08:19:54.000Z,630
2022-08-17T08:21:10.000Z,635
2022-08-17T08:22:26.000Z,635
2022-08-17T08:23:43.000Z,624
2022-08-17T08:24:59.000Z,607
2022-08-17T08:26:15.000Z,596
2022-08-17T08:27:31.000Z,585
2022-08-17T08:28:47.000Z,579
2022-08-17T08:30:04.000Z,579
2022-08-17T08:31:20.000Z,579
2022-08-17T08:32:36.000Z,573
2022-08-17T08:33:51.000Z,579
2022-08-17T08:35:07.000Z,585
2022-08-17T08:36:23.000Z,596
2022-08-17T08:37:40.000Z,601
2022-08-17T08:38:56.000Z,618
2022-08-17T08:40:12.000Z,641
2022-08-17T08:41:28.000Z,663
2022-08-17T08:42:44.000Z,669
2022-08-17T08:44:01.000Z,686
2022-08-17T08:45:17.000Z,714
2022-08-17T08:46:33.000Z,753
2022-08-17T08:47:49.000Z,793
2022-08-17T08:49:05.000Z,838
2022-08-17T08:50:21.000Z,883
2022-08-17T08:51:37.000Z,939
2022-08-17T08:52:53.000Z,990
2022-08-17T08:54:09.000Z,1040
2022-08-17T08:55:25.000Z,1085
2022-08-17T08:56:42.000Z,1113
2022-08-17T08:57:58.000Z,1125
2022-08-17T08:59:14.000Z,1136
2022-08-17T09:00:30.000Z,1158
2022-08-17T09:01:46.000Z,1186
2022-08-17T09:03:02.000Z,1175
2022-08-17T09:04:19.000Z,1147
2022-08-17T09:05:35.000Z,1113
2022-08-17T09:06:50.000Z,1057
2022-08-17T09:08:06.000Z,1023
2022-08-17T09:09:22.000Z,1006
2022-08-17T09:10:39.000Z,1012
2022-08-17T09:11:55.000Z,1018
2022-08-17T09:13:11.000Z,1029
2022-08-17T09:14:27.000Z,1029
2022-08-17T09:15:43.000Z,1057
2022-08-17T09:17:00.000Z,1074
2022-08-17T09:18:16.000Z,1085
2022-08-17T09:19:32.000Z,1096
2022-08-17T09:20:48.798Z,1102
2022-08-17T09:22:04.000Z,1113
2022-08-17T09:23:19.000Z,1215
2022-08-17T09:24:36.000Z,1136
2022-08-17T09:25:52.000Z,1153
2022-08-17T09:27:08.000Z,1164
2022-08-17T09:28:24.000Z,1113
2022-08-17T09:29:40.000Z,1074
2022-08-17T09:30:57.000Z,1057
2022-08-17T09:32:13.000Z,956
2022-08-17T09:33:29.000Z,911
2022-08-17T09:34:45.000Z,860
2022-08-17T09:36:01.000Z,815
2022-08-17T09:37:18.000Z,798
2022-08-17T09:38:34.000Z,793
2022-08-17T09:39:49.000Z,787
2022-08-17T09:41:05.000Z,798
2022-08-17T09:42:21.000Z,815
2022-08-17T09:43:37.000Z,849
2022-08-17T09:44:54.000Z,888
2022-08-17T09:46:10.000Z,916
2022-08-17T09:47:26.000Z,945
2022-08-17T09:48:42.000Z,984
2022-08-17T09:49:58.000Z,1029
2022-08-17T09:51:15.000Z,1068
2022-08-17T09:52:31.000Z,1074
2022-08-17T09:53:47.000Z,1063
2022-08-17T09:55:03.000Z,1046
2022-08-17T09:56:18.000Z,1012
2022-08-17T09:57:35.000Z,984
2022-08-17T09:58:51.000Z,978
2022-08-17T10:00:07.000Z,978
2022-08-17T10:01:23.000Z,973
2022-08-17T10:02:39.000Z,973
2022-08-17T10:03:55.000Z,995
2022-08-17T10:05:12.000Z,1001
2022-08-17T10:06:28.000Z,995
2022-08-17T10:07:44.000Z,1018
2022-08-17T10:09:00.000Z,1006
2022-08-17T10:10:16.000Z,1006
2022-08-17T10:11:33.000Z,984
2022-08-17T10:12:48.000Z,956
2022-08-17T10:14:04.000Z,922
2022-08-17T10:15:20.000Z,905
2022-08-17T10:16:36.000Z,866
2022-08-17T10:17:53.000Z,815
2022-08-17T10:19:09.000Z,776
2022-08-17T10:20:25.000Z,742
2022-08-17T10:21:41.000Z,703
2022-08-17T10:22:57.000Z,658
2022-08-17T10:24:14.000Z,618
2022-08-17T10:25:30.000Z,590
2022-08-17T10:26:46.000Z,585
2022-08-17T10:28:02.000Z,585
2022-08-17T10:29:17.000Z,590
2022-08-17T10:30:33.000Z,579
2022-08-17T10:31:50.000Z,573
2022-08-17T10:33:06.000Z,562
2022-08-17T10:34:22.000Z,551
2022-08-17T10:35:38.000Z,540
2022-08-17T10:36:54.000Z,528
2022-08-17T10:38:11.000Z,517
2022-08-17T10:39:27.000Z,517
2022-08-17T10:40:43.000Z,517
2022-08-17T10:41:59.000Z,523
2022-08-17T10:43:15.000Z,534
2022-08-17T10:44:32.000Z,551
2022-08-17T10:45:47.000Z,573
2022-08-17T10:47:03.000Z,585
2022-08-17T10:48:19.000Z,596
2022-08-17T10:49:35.000Z,613
2022-08-17T10:50:51.000Z,630
2022-08-17T10:52:08.000Z,652
2022-08-17T10:53:24.000Z,680
2022-08-17T10:54:40.000Z,703
2022-08-17T10:55:56.000Z,725
2022-08-17T10:57:12.000Z,759
2022-08-17T10:58:29.000Z,787
2022-08-17T10:59:45.000Z,798
2022-08-17T11:01:01.000Z,804
2022-08-17T11:02:16.000Z,832
2022-08-17T11:03:32.000Z,849
2022-08-17T11:04:49.000Z,843
2022-08-17T11:06:05.000Z,815
2022-08-17T11:07:21.000Z,776
2022-08-17T11:08:37.000Z,742
2022-08-17T11:09:53.000Z,714
2022-08-17T11:11:10.000Z,691
2022-08-17T11:12:26.000Z,669
2022-08-17T11:13:42.000Z,658
2022-08-17T11:14:58.000Z,652
2022-08-17T11:16:14.000Z,646
2022-08-17T11:17:30.000Z,663
2022-08-17T11:18:46.000Z,686
2022-08-17T11:20:02.000Z,703
2022-08-17T11:21:18.000Z,725
2022-08-17T11:22:34.000Z,742
2022-08-17T11:23:50.000Z,759
2022-08-17T11:25:07.000Z,781
2022-08-17T11:26:23.000Z,776
2022-08-17T11:27:39.000Z,759
2022-08-17T11:28:55.000Z,748
2022-08-17T11:30:11.000Z,736
2022-08-17T11:31:28.000Z,714
2022-08-17T11:32:44.000Z,669
2022-08-17T11:34:00.000Z,607
2022-08-17T11:35:15.000Z,551
2022-08-17T11:36:31.000Z,511
2022-08-17T11:37:47.000Z,495
2022-08-17T11:39:04.000Z,506
2022-08-17T11:40:20.000Z,601
2022-08-17T11:41:36.000Z,776
2022-08-17T11:42:52.000Z,990
2022-08-17T11:44:08.000Z,1130
2022-08-17T11:45:25.000Z,1181
2022-08-17T11:46:41.000Z,1130
2022-08-17T11:47:57.000Z,1051
2022-08-17T11:49:13.000Z,1029
2022-08-17T11:50:29.000Z,995
2022-08-17T11:51:45.000Z,911
2022-08-17T11:53:01.000Z,815
2022-08-17T11:54:17.000Z,736
2022-08-17T11:55:33.000Z,669
2022-08-17T11:56:49.000Z,607
2022-08-17T11:58:05.000Z,585
2022-08-17T11:59:22.000Z,573
2022-08-17T12:00:38.000Z,579
2022-08-17T12:01:54.000Z,601
2022-08-17T12:03:10.000Z,562
2022-08-17T12:04:26.000Z,495
2022-08-17T12:05:43.000Z,388
2022-08-17T12:06:59.000Z,281
2022-08-17T12:08:14.000Z,208
2022-08-17T12:09:30.000Z,168
2022-08-17T12:10:46.000Z,168
2022-08-17T12:12:03.000Z,185
2022-08-17T12:13:19.000Z,236
2022-08-17T12:14:34.000Z,320
2022-08-17T12:15:50.000Z,393
2022-08-17T12:17:06.000Z,433
2022-08-17T12:18:23.000Z,500
2022-08-17T12:19:39.000Z,472
2022-08-17T12:20:55.000Z,399
2022-08-17T12:22:11.000Z,371
2022-08-17T12:23:27.000Z,337
2022-08-17T12:24:43.000Z,348
2022-08-17T12:26:00.000Z,393
2022-08-17T12:27:16.000Z,433
2022-08-17T12:28:32.000Z,483
2022-08-17T12:29:48.000Z,517
2022-08-17T12:31:03.000Z,528
2022-08-17T12:32:20.000Z,528
2022-08-17T12:33:36.000Z,528
2022-08-17T12:34:52.000Z,562
2022-08-17T12:36:08.000Z,590
2022-08-17T12:37:24.000Z,669
2022-08-17T12:38:41.000Z,725
2022-08-17T12:39:57.000Z,714
2022-08-17T12:41:13.000Z,703
2022-08-17T12:42:29.000Z,748
2022-08-17T12:43:45.000Z,781
2022-08-17T12:45:01.000Z,787
2022-08-17T12:46:18.000Z,765
2022-08-17T12:47:33.000Z,748
2022-08-17T12:48:49.000Z,736
2022-08-17T12:50:05.000Z,697
2022-08-17T12:51:21.000Z,697
2022-08-17T12:52:38.000Z,725
2022-08-17T12:53:54.000Z,753
2022-08-17T12:55:10.000Z,793
2022-08-17T12:56:26.000Z,821
2022-08-17T12:57:42.000Z,838
2022-08-17T12:58:59.000Z,883
2022-08-17T13:00:15.000Z,928
2022-08-17T13:01:31.000Z,990
2022-08-17T13:02:47.000Z,1040
2022-08-17T13:04:02.000Z,1102
2022-08-17T13:05:19.000Z,1096
2022-08-17T13:06:35.000Z,1108
2022-08-17T13:07:51.000Z,1130
2022-08-17T13:09:07.000Z,1074
2022-08-17T13:10:23.000Z,1023
2022-08-17T13:11:39.000Z,978
2022-08-17T13:12:56.000Z,900
2022-08-17T13:14:12.000Z,849
2022-08-17T13:15:28.000Z,866
2022-08-17T13:16:44.000Z,894
2022-08-17T13:18:00.000Z,877
2022-08-17T13:19:17.000Z,860
2022-08-17T13:20:32.000Z,832
2022-08-17T13:21:48.000Z,815
2022-08-17T13:23:04.000Z,804
2022-08-17T13:24:20.000Z,765
2022-08-17T13:25:37.000Z,714
2022-08-17T13:26:53.000Z,663
2022-08-17T13:28:09.000Z,601
2022-08-17T13:29:25.000Z,585
2022-08-17T13:30:41.000Z,573
2022-08-17T13:31:57.000Z,556
2022-08-17T13:33:14.000Z,562
2022-08-17T13:34:30.000Z,562
2022-08-17T13:35:46.000Z,579
2022-08-17T13:37:01.000Z,624
2022-08-17T13:38:17.000Z,669
2022-08-17T13:39:34.000Z,759
2022-08-17T13:40:50.000Z,894
2022-08-17T13:42:06.000Z,1012
2022-08-17T13:43:22.000Z,1108
2022-08-17T13:44:38.000Z,1175
2022-08-17T13:45:55.000Z,1248
2022-08-17T13:47:11.000Z,1243
2022-08-17T13:48:27.000Z,1215
2022-08-17T13:49:43.000Z,1198
2022-08-17T13:50:59.000Z,1203
2022-08-17T13:52:15.000Z,1248
2022-08-17T13:53:31.000Z,1479
2022-08-17T13:54:47.000Z,2103
2022-08-17T13:56:03.000Z,2379
2022-08-17T13:57:19.000Z,3144
2022-08-17T13:58:35.000Z,1715
2022-08-17T13:59:52.000Z,2790
2022-08-17T14:01:08.000Z,3633
2022-08-17T14:02:24.000Z,3436
2022-08-17T14:03:40.000Z,2683
2022-08-17T14:04:56.000Z,3150
2022-08-17T14:06:13.000Z,3009
2022-08-17T14:07:29.000Z,2941
2022-08-17T14:08:45.000Z,2171
2022-08-17T14:10:00.000Z,1918
2022-08-17T14:11:16.000Z,2317
2022-08-17T14:12:33.000Z,1535
2022-08-17T14:13:49.000Z,1552
2022-08-17T14:15:05.000Z,2840
2022-08-17T14:16:21.000Z,3110
2022-08-17T14:17:37.000Z,3060
2022-08-17T14:18:53.000Z,3031
2022-08-17T14:20:10.000Z,3093
2022-08-17T14:21:26.000Z,2885
2022-08-17T14:22:42.000Z,2919
2022-08-17T14:23:58.000Z,2885
2022-08-17T14:25:14.000Z,2750
2022-08-17T14:26:31.000Z,2880
2022-08-17T14:27:46.000Z,2930
2022-08-17T14:29:02.000Z,2790
2022-08-17T14:30:18.000Z,2638
2022-08-17T14:31:34.000Z,1861
2022-08-17T14:32:51.000Z,1428
2022-08-17T14:34:07.000Z,2272
2022-08-17T14:35:23.000Z,2570
2022-08-17T14:36:39.000Z,2553
2022-08-17T14:37:55.000Z,2570
2022-08-17T14:39:12.000Z,2525
2022-08-17T14:40:28.000Z,2458
2022-08-17T14:41:44.000Z,2424
2022-08-17T14:43:00.000Z,2463
2022-08-17T14:44:15.000Z,2418
2022-08-17T14:45:31.000Z,2289
2022-08-17T14:46:48.000Z,2143
2022-08-17T14:48:04.000Z,2311
2022-08-17T14:49:20.000Z,2340
2022-08-17T14:50:36.000Z,2272
2022-08-17T14:51:52.000Z,1614
2022-08-17T14:53:09.000Z,1102
2022-08-17T14:54:25.000Z,1788
2022-08-17T14:55:41.000Z,2160
2022-08-17T14:56:57.000Z,2120
2022-08-17T14:58:13.000Z,2075
2022-08-17T14:59:30.000Z,1912
2022-08-17T15:00:45.000Z,1873
2022-08-17T15:02:01.000Z,1912
2022-08-17T15:03:17.000Z,1816
2022-08-17T15:04:33.000Z,1766
2022-08-17T15:05:50.000Z,1591
2022-08-17T15:07:06.000Z,1586
2022-08-17T15:08:22.000Z,1586
2022-08-17T15:09:38.000Z,1383
2022-08-17T15:10:54.000Z,1141
2022-08-17T15:12:10.000Z,1018
2022-08-17T15:13:27.000Z,1074
2022-08-17T15:14:43.000Z,1288
2022-08-17T15:15:59.000Z,1513
2022-08-17T15:17:14.000Z,1580
2022-08-17T15:18:30.000Z,1524
2022-08-17T15:19:47.000Z,1530
2022-08-17T15:21:03.000Z,1119
2022-08-17T15:22:19.000Z,1546
2022-08-17T15:23:35.000Z,759
2022-08-17T15:24:51.000Z,1603
2022-08-17T15:26:08.000Z,1608
2022-08-17T15:27:24.000Z,1558
2022-08-17T15:28:40.000Z,1636
2022-08-17T15:29:56.000Z,1648
2022-08-17T15:31:12.000Z,905
2022-08-17T15:32:29.000Z,928
2022-08-17T15:33:45.000Z,990
2022-08-17T15:35:00.000Z,551
2022-08-17T15:36:16.000Z,556
2022-08-17T15:37:32.000Z,601
2022-08-17T15:38:48.000Z,590
2022-08-17T15:40:05.000Z,556
2022-08-17T15:41:21.000Z,517
2022-08-17T15:42:37.000Z,489
2022-08-17T15:43:53.000Z,455
2022-08-17T15:45:09.000Z,421
2022-08-17T15:46:26.000Z,421
2022-08-17T15:47:42.000Z,421
2022-08-17T15:48:58.000Z,410
2022-08-17T15:50:14.000Z,393
2022-08-17T15:51:29.000Z,393
2022-08-17T15:52:46.000Z,388
2022-08-17T15:54:02.000Z,371
2022-08-17T15:55:18.000Z,354
2022-08-17T15:56:34.000Z,331
2022-08-17T15:57:50.000Z,320
2022-08-17T15:59:07.000Z,303
2022-08-17T16:00:23.000Z,286
2022-08-17T16:01:39.000Z,286
2022-08-17T16:02:55.000Z,292
2022-08-17T16:04:11.000Z,315
2022-08-17T16:05:27.000Z,326
2022-08-17T16:06:44.000Z,343
2022-08-17T16:07:59.000Z,365
2022-08-17T16:09:15.000Z,354
2022-08-17T16:10:31.000Z,365
2022-08-17T16:11:47.000Z,399
2022-08-17T16:13:04.000Z,433
2022-08-17T16:14:20.000Z,641
2022-08-17T16:15:36.000Z,545
2022-08-17T16:16:52.000Z,405
2022-08-17T16:18:08.000Z,365
2022-08-17T16:19:25.000Z,331
2022-08-17T16:20:41.000Z,309
2022-08-17T16:21:57.000Z,286
2022-08-17T16:23:13.000Z,247
2022-08-17T16:24:28.000Z,208
2022-08-17T16:25:44.000Z,191
2022-08-17T16:27:01.000Z,168
2022-08-17T16:28:17.000Z,168
2022-08-17T16:29:32.000Z,185
2022-08-17T16:30:48.000Z,219
2022-08-17T16:32:04.000Z,303
2022-08-17T16:33:21.000Z,298
2022-08-17T16:34:37.000Z,337
2022-08-17T16:35:53.000Z,382
2022-08-17T16:37:09.000Z,399
2022-08-17T16:38:25.000Z,405
2022-08-17T16:39:42.000Z,405
2022-08-17T16:40:58.000Z,405
2022-08-17T16:42:14.000Z,410
2022-08-17T16:43:30.000Z,421
2022-08-17T16:44:46.000Z,466
2022-08-17T16:46:02.000Z,528
2022-08-17T16:47:18.000Z,534
2022-08-17T16:48:34.000Z,511
2022-08-17T16:49:50.000Z,478
2022-08-17T16:51:06.000Z,438
2022-08-17T16:52:22.000Z,421
2022-08-17T16:54:55.000Z,388
2022-08-17T16:56:11.000Z,393
2022-08-17T16:57:27.000Z,393
2022-08-17T16:58:43.000Z,399
2022-08-17T17:00:00.000Z,399
2022-08-17T17:01:16.000Z,388
2022-08-17T17:02:31.683Z,376
2022-08-17T17:03:47.000Z,354
2022-08-17T17:05:03.000Z,343
2022-08-17T17:06:20.000Z,326
2022-08-17T17:07:36.000Z,320
2022-08-17T17:08:52.000Z,309
2022-08-17T17:10:08.000Z,286
2022-08-17T17:11:24.000Z,275
2022-08-17T17:12:40.000Z,264
2022-08-17T17:13:57.000Z,258
2022-08-17T17:15:13.000Z,247
2022-08-17T17:16:29.000Z,236
2022-08-17T17:17:45.000Z,225
2022-08-17T17:19:00.000Z,219
2022-08-17T17:20:17.000Z,202
2022-08-17T17:21:33.000Z,185
2022-08-17T17:22:49.000Z,174
2022-08-17T17:24:05.000Z,180
2022-08-17T17:25:21.000Z,180
2022-08-17T17:26:38.000Z,174
2022-08-17T17:27:54.000Z,168
2022-08-17T17:29:10.000Z,168
2022-08-17T17:30:26.000Z,168
2022-08-17T17:31:42.000Z,168
2022-08-17T17:32:58.000Z,168
2022-08-17T17:34:15.000Z,174
2022-08-17T17:35:30.000Z,168
2022-08-17T17:36:46.000Z,168
2022-08-17T17:38:02.000Z,157
2022-08-17T17:39:18.000Z,151
2022-08-17T17:40:35.000Z,146
2022-08-17T17:41:51.000Z,140